sensor_id;sensor_type;location;lat;lon;timestamp;pressure;altitude;pressure_sealevel;temperature;humidity
68965;BME280;56017;48.680;8.998;2022-12-07T00:00:35;96720;;;5;85.5
68965;BME280;56017;48.680;8.998;2022-12-07T00:02:59;96720;;;5;85.5
68965;BME280;56017;48.680;8.998;2022-12-07T00:05:37;96720;;;5.1;86
68965;BME280;56017;48.680;8.998;2022-12-07T00:08:01;96720;;;5.1;85
68965;BME280;56017;48.680;8.998;2022-12-07T00:10:39;96720;;;5.1;85.5
68965;BME280;56017;48.680;8.998;2022-12-07T00:13:03;96720;;;5;85.5
68965;BME280;56017;48.680;8.998;2022-12-07T00:15:41;96720;;;5.1;85
68965;BME280;56017;48.680;8.998;2022-12-07T00:18:05;96710;;;5;85.5
68965;BME280;56017;48.680;8.998;2022-12-07T00:20:43;96720;;;4.9;86
68965;BME280;56017;48.680;8.998;2022-12-07T00:23:07;96720;;;4.9;86
68965;BME280;56017;48.680;8.998;2022-12-07T00:25:45;96720;;;4.9;85.5
68965;BME280;56017;48.680;8.998;2022-12-07T00:28:09;96710;;;5;85.5
68965;BME280;56017;48.680;8.998;2022-12-07T00:30:47;96720;;;5;85.5
68965;BME280;56017;48.680;8.998;2022-12-07T00:33:11;96710;;;5.1;86
68965;BME280;56017;48.680;8.998;2022-12-07T00:35:54;96710;;;5.1;86
68965;BME280;56017;48.680;8.998;2022-12-07T00:38:13;96710;;;5.2;85
68965;BME280;56017;48.680;8.998;2022-12-07T00:40:59;96710;;;5.1;85.5
68965;BME280;56017;48.680;8.998;2022-12-07T00:43:15;96710;;;5.1;85.5
68965;BME280;56017;48.680;8.998;2022-12-07T00:48:17;96710;;;5.1;85
68965;BME280;56017;48.680;8.998;2022-12-07T00:50:55;96710;;;5.1;85
68965;BME280;56017;48.680;8.998;2022-12-07T00:53:26;96710;;;5;85.5
68965;BME280;56017;48.680;8.998;2022-12-07T00:55:57;96710;;;5.1;85.5
68965;BME280;56017;48.680;8.998;2022-12-07T00:58:21;96710;;;5.1;85
68965;BME280;56017;48.680;8.998;2022-12-07T01:00:52;96710;;;5.2;85
68965;BME280;56017;48.680;8.998;2022-12-07T01:03:23;96710;;;5.2;85
68965;BME280;56017;48.680;8.998;2022-12-07T01:06:01;96710;;;5.2;85
68965;BME280;56017;48.680;8.998;2022-12-07T01:08:25;96710;;;5.2;85
68965;BME280;56017;48.680;8.998;2022-12-07T01:11:04;96710;;;5.1;85
68965;BME280;56017;48.680;8.998;2022-12-07T01:13:27;96710;;;5;85
68965;BME280;56017;48.680;8.998;2022-12-07T01:16:05;96710;;;5;85.5
68965;BME280;56017;48.680;8.998;2022-12-07T01:18:29;96710;;;5;85.5
68965;BME280;56017;48.680;8.998;2022-12-07T01:23:31;96710;;;5;85
68965;BME280;56017;48.680;8.998;2022-12-07T01:26:10;96720;;;4.9;85.5
68965;BME280;56017;48.680;8.998;2022-12-07T01:28:33;96720;;;4.8;85.5
68965;BME280;56017;48.680;8.998;2022-12-07T01:33:42;96710;;;4.9;86
68965;BME280;56017;48.680;8.998;2022-12-07T01:38:37;96720;;;5;85
68965;BME280;56017;48.680;8.998;2022-12-07T01:41:09;96720;;;4.9;85
68965;BME280;56017;48.680;8.998;2022-12-07T01:44:12;96720;;;4.8;85.5
68965;BME280;56017;48.680;8.998;2022-12-07T01:46:10;96720;;;4.8;85.5
68965;BME280;56017;48.680;8.998;2022-12-07T01:48:41;96730;;;4.8;85.5
68965;BME280;56017;48.680;8.998;2022-12-07T01:53:43;96730;;;4.7;85.5
68965;BME280;56017;48.680;8.998;2022-12-07T01:56:21;96730;;;4.6;85.5
68965;BME280;56017;48.680;8.998;2022-12-07T01:58:45;96730;;;4.6;86
68965;BME280;56017;48.680;8.998;2022-12-07T02:01:22;96730;;;4.7;86
68965;BME280;56017;48.680;8.998;2022-12-07T02:03:47;96730;;;4.7;86
68965;BME280;56017;48.680;8.998;2022-12-07T02:06:24;96730;;;4.7;86
68965;BME280;56017;48.680;8.998;2022-12-07T02:08:48;96730;;;4.8;86
68965;BME280;56017;48.680;8.998;2022-12-07T02:11:26;96730;;;4.8;85.5
68965;BME280;56017;48.680;8.998;2022-12-07T02:13:50;96740;;;4.8;85.5
68965;BME280;56017;48.680;8.998;2022-12-07T02:16:31;96740;;;4.9;85.5
68965;BME280;56017;48.680;8.998;2022-12-07T02:18:56;96740;;;4.8;85.5
68965;BME280;56017;48.680;8.998;2022-12-07T02:25:02;96730;;;4.8;85.5
68965;BME280;56017;48.680;8.998;2022-12-07T02:31:34;96720;;;4.8;85.5
68965;BME280;56017;48.680;8.998;2022-12-07T02:36:38;96720;;;4.8;85
68965;BME280;56017;48.680;8.998;2022-12-07T02:39:03;96720;;;4.8;85.5
68965;BME280;56017;48.680;8.998;2022-12-07T02:41:40;96720;;;4.8;85.5
68965;BME280;56017;48.680;8.998;2022-12-07T02:44:04;96730;;;4.8;85
68965;BME280;56017;48.680;8.998;2022-12-07T02:46:40;96720;;;4.8;85
68965;BME280;56017;48.680;8.998;2022-12-07T02:49:04;96720;;;4.8;85
68965;BME280;56017;48.680;8.998;2022-12-07T02:54:13;96710;;;4.7;85.5
68965;BME280;56017;48.680;8.998;2022-12-07T02:56:46;96720;;;4.7;85.5
68965;BME280;56017;48.680;8.998;2022-12-07T03:04:14;96710;;;4.8;85
68965;BME280;56017;48.680;8.998;2022-12-07T03:06:49;96710;;;4.8;84.5
68965;BME280;56017;48.680;8.998;2022-12-07T03:09:14;96700;;;4.8;84.5
68965;BME280;56017;48.680;8.998;2022-12-07T03:11:50;96700;;;4.8;84.5
68965;BME280;56017;48.680;8.998;2022-12-07T03:14:15;96700;;;4.7;85
68965;BME280;56017;48.680;8.998;2022-12-07T03:16:52;96700;;;4.8;85
68965;BME280;56017;48.680;8.998;2022-12-07T03:19:15;96700;;;4.8;85.5
68965;BME280;56017;48.680;8.998;2022-12-07T03:21:54;96700;;;4.8;85
68965;BME280;56017;48.680;8.998;2022-12-07T03:24:17;96700;;;4.8;85
68965;BME280;56017;48.680;8.998;2022-12-07T03:26:56;96690;;;4.8;84.5
68965;BME280;56017;48.680;8.998;2022-12-07T03:29:20;96690;;;4.8;85
68965;BME280;56017;48.680;8.998;2022-12-07T03:34:24;96690;;;4.8;84.5
68965;BME280;56017;48.680;8.998;2022-12-07T03:37:00;96690;;;4.8;84.5
68965;BME280;56017;48.680;8.998;2022-12-07T03:39:25;96700;;;4.7;85
68965;BME280;56017;48.680;8.998;2022-12-07T03:42:00;96700;;;4.7;84.5
68965;BME280;56017;48.680;8.998;2022-12-07T03:44:25;96690;;;4.6;85
68965;BME280;56017;48.680;8.998;2022-12-07T03:49:28;96690;;;4.4;85.5
68965;BME280;56017;48.680;8.998;2022-12-07T03:52:08;96690;;;4.4;85.5
68965;BME280;56017;48.680;8.998;2022-12-07T03:54:31;96690;;;4.4;85.5
68965;BME280;56017;48.680;8.998;2022-12-07T03:57:06;96690;;;4.4;85.5
68965;BME280;56017;48.680;8.998;2022-12-07T03:59:31;96690;;;4.5;85
68965;BME280;56017;48.680;8.998;2022-12-07T04:02:03;96690;;;4.5;84.5
68965;BME280;56017;48.680;8.998;2022-12-07T04:04:33;96680;;;4.5;85
68965;BME280;56017;48.680;8.998;2022-12-07T04:07:10;96680;;;4.5;85
68965;BME280;56017;48.680;8.998;2022-12-07T04:09:34;96690;;;4.5;85
68965;BME280;56017;48.680;8.998;2022-12-07T04:12:12;96680;;;4.5;85
68965;BME280;56017;48.680;8.998;2022-12-07T04:17:08;96680;;;4.6;85
68965;BME280;56017;48.680;8.998;2022-12-07T04:19:39;96680;;;4.5;85
68965;BME280;56017;48.680;8.998;2022-12-07T04:22:16;96680;;;4.5;85
68965;BME280;56017;48.680;8.998;2022-12-07T04:24:40;96680;;;4.5;85
68965;BME280;56017;48.680;8.998;2022-12-07T04:27:18;96680;;;4.5;84.5
68965;BME280;56017;48.680;8.998;2022-12-07T04:29:42;96680;;;4.4;84.5
68965;BME280;56017;48.680;8.998;2022-12-07T04:32:20;96680;;;4.4;85
68965;BME280;56017;48.680;8.998;2022-12-07T04:34:44;96680;;;4.4;85
68965;BME280;56017;48.680;8.998;2022-12-07T04:37:22;96690;;;4.4;85.5
68965;BME280;56017;48.680;8.998;2022-12-07T04:40:03;96690;;;4.3;85
68965;BME280;56017;48.680;8.998;2022-12-07T04:44:48;96680;;;4.1;85.5
68965;BME280;56017;48.680;8.998;2022-12-07T04:49:50;96670;;;4.4;85
68965;BME280;56017;48.680;8.998;2022-12-07T04:52:28;96670;;;4.4;85
68965;BME280;56017;48.680;8.998;2022-12-07T04:54:52;96670;;;4.4;84.5
68965;BME280;56017;48.680;8.998;2022-12-07T04:57:30;96680;;;4.3;85
68965;BME280;56017;48.680;8.998;2022-12-07T05:02:31;96660;;;3.9;84.5
68965;BME280;56017;48.680;8.998;2022-12-07T05:04:56;96660;;;3.7;85
68965;BME280;56017;48.680;8.998;2022-12-07T05:07:33;96660;;;3.5;85
68965;BME280;56017;48.680;8.998;2022-12-07T05:09:58;96660;;;3.4;85.5
68965;BME280;56017;48.680;8.998;2022-12-07T05:12:35;96660;;;3.4;85.5
68965;BME280;56017;48.680;8.998;2022-12-07T05:15:01;96660;;;3.4;85
68965;BME280;56017;48.680;8.998;2022-12-07T05:17:31;96650;;;3.5;85
68965;BME280;56017;48.680;8.998;2022-12-07T05:20:02;96650;;;3.6;84.5
68965;BME280;56017;48.680;8.998;2022-12-07T05:22:39;96650;;;3.6;84.5
68965;BME280;56017;48.680;8.998;2022-12-07T05:25:04;96650;;;3.5;84.5
68965;BME280;56017;48.680;8.998;2022-12-07T05:27:41;96650;;;3.5;85
68965;BME280;56017;48.680;8.998;2022-12-07T05:30:06;96640;;;3.4;85
68965;BME280;56017;48.680;8.998;2022-12-07T05:32:43;96630;;;3.3;85
68965;BME280;56017;48.680;8.998;2022-12-07T05:35:08;96630;;;3.2;85
68965;BME280;56017;48.680;8.998;2022-12-07T05:37:45;96640;;;3.1;85
68965;BME280;56017;48.680;8.998;2022-12-07T05:40:10;96650;;;3;85
68965;BME280;56017;48.680;8.998;2022-12-07T05:42:47;96650;;;3;84.5
68965;BME280;56017;48.680;8.998;2022-12-07T05:45:12;96660;;;2.9;85
68965;BME280;56017;48.680;8.998;2022-12-07T05:47:49;96660;;;2.8;85
68965;BME280;56017;48.680;8.998;2022-12-07T05:50:13;96660;;;2.8;85
68965;BME280;56017;48.680;8.998;2022-12-07T05:52:51;96660;;;2.7;85
68965;BME280;56017;48.680;8.998;2022-12-07T05:55:16;96660;;;2.7;84.5
68965;BME280;56017;48.680;8.998;2022-12-07T05:57:53;96670;;;2.6;84.5
68965;BME280;56017;48.680;8.998;2022-12-07T06:00:17;96670;;;2.6;84.5
68965;BME280;56017;48.680;8.998;2022-12-07T06:02:55;96670;;;2.6;84.5
68965;BME280;56017;48.680;8.998;2022-12-07T06:05:19;96670;;;2.6;84.5
68965;BME280;56017;48.680;8.998;2022-12-07T06:07:57;96680;;;2.6;84
68965;BME280;56017;48.680;8.998;2022-12-07T06:10:21;96680;;;2.5;84.5
68965;BME280;56017;48.680;8.998;2022-12-07T06:12:59;96680;;;2.6;84.5
68965;BME280;56017;48.680;8.998;2022-12-07T06:15:23;96680;;;2.8;84.5
68965;BME280;56017;48.680;8.998;2022-12-07T06:18:01;96680;;;2.8;85
68965;BME280;56017;48.680;8.998;2022-12-07T06:20:25;96690;;;2.9;85
68965;BME280;56017;48.680;8.998;2022-12-07T06:23:00;96690;;;2.9;85
68965;BME280;56017;48.680;8.998;2022-12-07T06:25:27;96680;;;2.9;85
68965;BME280;56017;48.680;8.998;2022-12-07T06:28:05;96690;;;2.9;85
68965;BME280;56017;48.680;8.998;2022-12-07T06:30:32;96690;;;3;85.5
68965;BME280;56017;48.680;8.998;2022-12-07T06:33:07;96690;;;3;85
68965;BME280;56017;48.680;8.998;2022-12-07T06:35:33;96690;;;3;85
68965;BME280;56017;48.680;8.998;2022-12-07T06:38:09;96690;;;3;85
68965;BME280;56017;48.680;8.998;2022-12-07T06:40:33;96700;;;3;85
68965;BME280;56017;48.680;8.998;2022-12-07T06:43:11;96700;;;3.1;85
68965;BME280;56017;48.680;8.998;2022-12-07T06:45:35;96700;;;3.1;84.5
68965;BME280;56017;48.680;8.998;2022-12-07T06:48:13;96700;;;3.2;84.5
68965;BME280;56017;48.680;8.998;2022-12-07T06:50:37;96690;;;3.1;84.5
68965;BME280;56017;48.680;8.998;2022-12-07T06:53:15;96700;;;3.2;85
68965;BME280;56017;48.680;8.998;2022-12-07T06:55:42;96700;;;3.1;85
68965;BME280;56017;48.680;8.998;2022-12-07T06:58:17;96710;;;3.2;85.5
68965;BME280;56017;48.680;8.998;2022-12-07T07:00:41;96710;;;3.2;85
68965;BME280;56017;48.680;8.998;2022-12-07T07:03:19;96710;;;3.2;85
68965;BME280;56017;48.680;8.998;2022-12-07T07:05:43;96710;;;3.1;85
68965;BME280;56017;48.680;8.998;2022-12-07T07:08:20;96700;;;3;85
68965;BME280;56017;48.680;8.998;2022-12-07T07:10:45;96700;;;3;86
68965;BME280;56017;48.680;8.998;2022-12-07T07:13:22;96700;;;3.1;85.5
68965;BME280;56017;48.680;8.998;2022-12-07T07:15:47;96700;;;3.1;85.5
68965;BME280;56017;48.680;8.998;2022-12-07T07:18:24;96700;;;3;85.5
68965;BME280;56017;48.680;8.998;2022-12-07T07:20:50;96690;;;3;85.5
68965;BME280;56017;48.680;8.998;2022-12-07T07:23:26;96690;;;3.1;86
68965;BME280;56017;48.680;8.998;2022-12-07T07:25:51;96700;;;3.1;86
68965;BME280;56017;48.680;8.998;2022-12-07T07:28:28;96690;;;3.2;86
68965;BME280;56017;48.680;8.998;2022-12-07T07:30:53;96690;;;3.1;86
68965;BME280;56017;48.680;8.998;2022-12-07T07:33:24;96690;;;3.1;86
68965;BME280;56017;48.680;8.998;2022-12-07T07:38:32;96700;;;3;86
68965;BME280;56017;48.680;8.998;2022-12-07T07:40:57;96690;;;3;86.5
68965;BME280;56017;48.680;8.998;2022-12-07T07:45:59;96690;;;3;86.5
68965;BME280;56017;48.680;8.998;2022-12-07T07:48:36;96700;;;3.1;86.5
68965;BME280;56017;48.680;8.998;2022-12-07T07:51:04;96700;;;3.2;86.5
68965;BME280;56017;48.680;8.998;2022-12-07T07:56:03;96710;;;3.4;86.5
68965;BME280;56017;48.680;8.998;2022-12-07T08:01:05;96720;;;3.6;86.5
68965;BME280;56017;48.680;8.998;2022-12-07T08:03:42;96710;;;3.8;85.5
68965;BME280;56017;48.680;8.998;2022-12-07T08:06:07;96710;;;3.7;85
68965;BME280;56017;48.680;8.998;2022-12-07T08:11:08;96710;;;3.7;86.5
68965;BME280;56017;48.680;8.998;2022-12-07T08:13:40;96710;;;3.9;86
68965;BME280;56017;48.680;8.998;2022-12-07T08:16:10;96710;;;3.9;85.5
68965;BME280;56017;48.680;8.998;2022-12-07T08:18:48;96710;;;3.9;85.5
68965;BME280;56017;48.680;8.998;2022-12-07T08:21:13;96720;;;3.9;85.5
68965;BME280;56017;48.680;8.998;2022-12-07T08:23:44;96720;;;3.9;85.5
68965;BME280;56017;48.680;8.998;2022-12-07T08:26:15;96720;;;4;86.5
68965;BME280;56017;48.680;8.998;2022-12-07T08:28:52;96720;;;4.1;85.5
68965;BME280;56017;48.680;8.998;2022-12-07T08:31:17;96720;;;4;85.5
68965;BME280;56017;48.680;8.998;2022-12-07T08:33:53;96720;;;3.8;85.5
68965;BME280;56017;48.680;8.998;2022-12-07T08:36:18;96720;;;3.8;86
68965;BME280;56017;48.680;8.998;2022-12-07T08:38:55;96720;;;3.9;86.5
68965;BME280;56017;48.680;8.998;2022-12-07T08:41:20;96730;;;4.1;86.5
68965;BME280;56017;48.680;8.998;2022-12-07T08:46:24;96720;;;4.3;85.5
68965;BME280;56017;48.680;8.998;2022-12-07T08:51:24;96730;;;4.3;85.5
68965;BME280;56017;48.680;8.998;2022-12-07T08:53:55;96720;;;4.3;86
68965;BME280;56017;48.680;8.998;2022-12-07T08:56:26;96720;;;4.3;86
68965;BME280;56017;48.680;8.998;2022-12-07T08:58:57;96730;;;4.5;86
68965;BME280;56017;48.680;8.998;2022-12-07T09:01:28;96730;;;4.6;86
68965;BME280;56017;48.680;8.998;2022-12-07T09:04:05;96720;;;4.9;85
68965;BME280;56017;48.680;8.998;2022-12-07T09:06:32;96720;;;4.8;85
68965;BME280;56017;48.680;8.998;2022-12-07T09:09:07;96730;;;4.9;85.5
68965;BME280;56017;48.680;8.998;2022-12-07T09:11:32;96730;;;5;85
68965;BME280;56017;48.680;8.998;2022-12-07T09:14:09;96730;;;5;85
68965;BME280;56017;48.680;8.998;2022-12-07T09:16:33;96730;;;5;85.5
68965;BME280;56017;48.680;8.998;2022-12-07T09:19:11;96730;;;5;85.5
68965;BME280;56017;48.680;8.998;2022-12-07T09:21:35;96730;;;5;85
68965;BME280;56017;48.680;8.998;2022-12-07T09:24:13;96730;;;4.9;85.5
68965;BME280;56017;48.680;8.998;2022-12-07T09:26:37;96730;;;4.9;86
68965;BME280;56017;48.680;8.998;2022-12-07T09:29:15;96730;;;5;86
68965;BME280;56017;48.680;8.998;2022-12-07T09:31:40;96730;;;5.1;85.5
68965;BME280;56017;48.680;8.998;2022-12-07T09:34:17;96720;;;5;86
68965;BME280;56017;48.680;8.998;2022-12-07T09:36:41;96730;;;5.1;86
68965;BME280;56017;48.680;8.998;2022-12-07T09:39:19;96720;;;5.1;85.5
68965;BME280;56017;48.680;8.998;2022-12-07T09:41:44;96720;;;5.1;86
68965;BME280;56017;48.680;8.998;2022-12-07T09:44:23;96720;;;5.2;86.5
68965;BME280;56017;48.680;8.998;2022-12-07T09:46:45;96720;;;5.3;86
68965;BME280;56017;48.680;8.998;2022-12-07T09:49:23;96720;;;5.4;86
68965;BME280;56017;48.680;8.998;2022-12-07T09:52:24;96720;;;5.4;86
68965;BME280;56017;48.680;8.998;2022-12-07T09:54:25;96710;;;5.4;86
68965;BME280;56017;48.680;8.998;2022-12-07T09:56:49;96700;;;5.5;86.5
68965;BME280;56017;48.680;8.998;2022-12-07T09:59:26;96700;;;5.7;85.5
68965;BME280;56017;48.680;8.998;2022-12-07T10:01:51;96700;;;5.6;85.5
68965;BME280;56017;48.680;8.998;2022-12-07T10:04:28;96700;;;5.6;85.5
68965;BME280;56017;48.680;8.998;2022-12-07T10:06:53;96700;;;5.6;86
68965;BME280;56017;48.680;8.998;2022-12-07T10:09:30;96700;;;5.7;86
68965;BME280;56017;48.680;8.998;2022-12-07T10:12:00;96700;;;5.8;86
68965;BME280;56017;48.680;8.998;2022-12-07T10:14:33;96700;;;5.8;85.5
68965;BME280;56017;48.680;8.998;2022-12-07T10:16:57;96700;;;5.8;86.5
68965;BME280;56017;48.680;8.998;2022-12-07T10:19:34;96690;;;5.9;85.5
68965;BME280;56017;48.680;8.998;2022-12-07T10:22:16;96690;;;5.7;85
68965;BME280;56017;48.680;8.998;2022-12-07T10:24:37;96680;;;5.6;85.5
68965;BME280;56017;48.680;8.998;2022-12-07T10:27:01;96680;;;5.7;86.5
68965;BME280;56017;48.680;8.998;2022-12-07T10:29:38;96680;;;5.7;86
68965;BME280;56017;48.680;8.998;2022-12-07T10:32:21;96680;;;5.8;86
68965;BME280;56017;48.680;8.998;2022-12-07T10:34:40;96680;;;5.9;86.5
68965;BME280;56017;48.680;8.998;2022-12-07T10:37:07;96680;;;6;86
68965;BME280;56017;48.680;8.998;2022-12-07T10:39:41;96680;;;6.1;86
68965;BME280;56017;48.680;8.998;2022-12-07T10:42:09;96670;;;6.2;86
68965;BME280;56017;48.680;8.998;2022-12-07T10:44:44;96680;;;6.1;85.5
68965;BME280;56017;48.680;8.998;2022-12-07T10:47:13;96670;;;6.1;86
68965;BME280;56017;48.680;8.998;2022-12-07T10:50:04;96670;;;6.1;86
68965;BME280;56017;48.680;8.998;2022-12-07T10:52:20;96660;;;6.1;86
68965;BME280;56017;48.680;8.998;2022-12-07T10:54:51;96660;;;6.1;86
68965;BME280;56017;48.680;8.998;2022-12-07T10:57:17;96660;;;6;86
68965;BME280;56017;48.680;8.998;2022-12-07T11:02:24;96650;;;5.9;86.5
68965;BME280;56017;48.680;8.998;2022-12-07T11:04:55;96660;;;6.1;87
68965;BME280;56017;48.680;8.998;2022-12-07T11:07:20;96650;;;6.1;86
68965;BME280;56017;48.680;8.998;2022-12-07T11:10:05;96650;;;6.1;86.5
68965;BME280;56017;48.680;8.998;2022-12-07T11:12:52;96650;;;6.1;86.5
68965;BME280;56017;48.680;8.998;2022-12-07T11:14:54;96650;;;6.2;86
68965;BME280;56017;48.680;8.998;2022-12-07T11:17:26;96650;;;6.1;86
68965;BME280;56017;48.680;8.998;2022-12-07T11:20:01;96640;;;6.1;86.5
68965;BME280;56017;48.680;8.998;2022-12-07T11:22:25;96640;;;6.2;86.5
68965;BME280;56017;48.680;8.998;2022-12-07T11:25:17;96630;;;6.2;86.5
68965;BME280;56017;48.680;8.998;2022-12-07T11:27:31;96630;;;6.2;86.5
68965;BME280;56017;48.680;8.998;2022-12-07T11:32:39;96630;;;6.1;86.5
68965;BME280;56017;48.680;8.998;2022-12-07T11:35:01;96620;;;6.3;86.5
68965;BME280;56017;48.680;8.998;2022-12-07T11:37:30;96620;;;6.4;86.5
68965;BME280;56017;48.680;8.998;2022-12-07T11:40:15;96610;;;6.4;86.5
68965;BME280;56017;48.680;8.998;2022-12-07T11:42:33;96620;;;6.4;86
68965;BME280;56017;48.680;8.998;2022-12-07T11:45:13;96610;;;6.4;86
68965;BME280;56017;48.680;8.998;2022-12-07T11:47:48;96610;;;6.3;86.5
68965;BME280;56017;48.680;8.998;2022-12-07T11:50:15;96600;;;6.3;86.5
68965;BME280;56017;48.680;8.998;2022-12-07T11:52:43;96600;;;6.3;86.5
68965;BME280;56017;48.680;8.998;2022-12-07T11:55:45;96600;;;6.3;86.5
68965;BME280;56017;48.680;8.998;2022-12-07T11:57:39;96600;;;6.4;86.5
68965;BME280;56017;48.680;8.998;2022-12-07T12:00:15;96590;;;6.3;86
68965;BME280;56017;48.680;8.998;2022-12-07T12:02:42;96600;;;6.2;86.5
68965;BME280;56017;48.680;8.998;2022-12-07T12:05:17;96590;;;6.2;87
68965;BME280;56017;48.680;8.998;2022-12-07T12:07:40;96590;;;6.2;86
68965;BME280;56017;48.680;8.998;2022-12-07T12:10:21;96590;;;6.3;87
68965;BME280;56017;48.680;8.998;2022-12-07T12:12:47;96590;;;6.4;86.5
68965;BME280;56017;48.680;8.998;2022-12-07T12:15:29;96590;;;6.3;86.5
68965;BME280;56017;48.680;8.998;2022-12-07T12:17:49;96590;;;6.3;86.5
68965;BME280;56017;48.680;8.998;2022-12-07T12:22:47;96590;;;6.2;86.5
68965;BME280;56017;48.680;8.998;2022-12-07T12:25:25;96580;;;6.2;86.5
68965;BME280;56017;48.680;8.998;2022-12-07T12:27:48;96580;;;6.1;86
68965;BME280;56017;48.680;8.998;2022-12-07T12:30:29;96580;;;6.1;86.5
68965;BME280;56017;48.680;8.998;2022-12-07T12:32:50;96580;;;6.2;86.5
68965;BME280;56017;48.680;8.998;2022-12-07T12:35:29;96580;;;6.4;86
68965;BME280;56017;48.680;8.998;2022-12-07T12:37:53;96580;;;6.4;85.5
68965;BME280;56017;48.680;8.998;2022-12-07T12:42:55;96570;;;6.3;85.5
68965;BME280;56017;48.680;8.998;2022-12-07T12:45:32;96570;;;6.3;86
68965;BME280;56017;48.680;8.998;2022-12-07T12:47:57;96570;;;6.2;86
68965;BME280;56017;48.680;8.998;2022-12-07T12:50:34;96570;;;6.1;86
68965;BME280;56017;48.680;8.998;2022-12-07T12:52:58;96570;;;6;86
68965;BME280;56017;48.680;8.998;2022-12-07T12:55:45;96570;;;6;86.5
68965;BME280;56017;48.680;8.998;2022-12-07T12:58:21;96570;;;5.9;86.5
68965;BME280;56017;48.680;8.998;2022-12-07T13:00:37;96570;;;5.9;86
68965;BME280;56017;48.680;8.998;2022-12-07T13:03:01;96570;;;5.8;86.5
68965;BME280;56017;48.680;8.998;2022-12-07T13:05:33;96560;;;5.9;86.5
68965;BME280;56017;48.680;8.998;2022-12-07T13:08:05;96560;;;5.9;86.5
68965;BME280;56017;48.680;8.998;2022-12-07T13:10:42;96550;;;6;86.5
68965;BME280;56017;48.680;8.998;2022-12-07T13:20:47;96550;;;6.1;86.5
68965;BME280;56017;48.680;8.998;2022-12-07T13:23:12;96540;;;6.1;86
68965;BME280;56017;48.680;8.998;2022-12-07T13:25:55;96540;;;6.1;86.5
68965;BME280;56017;48.680;8.998;2022-12-07T13:28:14;96540;;;6.2;86.5
68965;BME280;56017;48.680;8.998;2022-12-07T13:30:46;96540;;;6.2;86
68965;BME280;56017;48.680;8.998;2022-12-07T13:33:14;96540;;;6;86
68965;BME280;56017;48.680;8.998;2022-12-07T13:35:53;96540;;;5.9;87
68965;BME280;56017;48.680;8.998;2022-12-07T13:38:19;96540;;;6.1;87
68965;BME280;56017;48.680;8.998;2022-12-07T13:41:24;96540;;;6.2;86.5
68965;BME280;56017;48.680;8.998;2022-12-07T13:43:17;96540;;;6.2;86
68965;BME280;56017;48.680;8.998;2022-12-07T13:45:58;96540;;;6.1;86.5
68965;BME280;56017;48.680;8.998;2022-12-07T13:48:21;96540;;;6;86.5
68965;BME280;56017;48.680;8.998;2022-12-07T13:50:56;96540;;;6;86
68965;BME280;56017;48.680;8.998;2022-12-07T13:53:20;96530;;;6;86.5
68965;BME280;56017;48.680;8.998;2022-12-07T13:55:58;96530;;;6;86
68965;BME280;56017;48.680;8.998;2022-12-07T13:58:24;96520;;;6;86.5
68965;BME280;56017;48.680;8.998;2022-12-07T14:00:59;96530;;;6;86
68965;BME280;56017;48.680;8.998;2022-12-07T14:03:29;96530;;;6;86.5
68965;BME280;56017;48.680;8.998;2022-12-07T14:06:04;96530;;;6.1;86
68965;BME280;56017;48.680;8.998;2022-12-07T14:08:29;96530;;;6.2;85.5
68965;BME280;56017;48.680;8.998;2022-12-07T14:11:03;96530;;;6;86
68965;BME280;56017;48.680;8.998;2022-12-07T14:13:36;96530;;;6;86
68965;BME280;56017;48.680;8.998;2022-12-07T14:16:16;96540;;;6;86
68965;BME280;56017;48.680;8.998;2022-12-07T14:18:34;96530;;;5.9;86
68965;BME280;56017;48.680;8.998;2022-12-07T14:23:32;96530;;;5.8;86
68965;BME280;56017;48.680;8.998;2022-12-07T14:28:35;96530;;;5.8;86
68965;BME280;56017;48.680;8.998;2022-12-07T14:31:12;96530;;;5.8;86
68965;BME280;56017;48.680;8.998;2022-12-07T14:33:36;96530;;;5.7;86
68965;BME280;56017;48.680;8.998;2022-12-07T14:36:13;96530;;;5.7;86
68965;BME280;56017;48.680;8.998;2022-12-07T14:38:38;96530;;;5.6;86
68965;BME280;56017;48.680;8.998;2022-12-07T14:41:16;96530;;;5.6;86
68965;BME280;56017;48.680;8.998;2022-12-07T14:43:39;96540;;;5.7;86.5
68965;BME280;56017;48.680;8.998;2022-12-07T14:46:17;96540;;;5.7;86
68965;BME280;56017;48.680;8.998;2022-12-07T14:48:44;96540;;;5.8;86
68965;BME280;56017;48.680;8.998;2022-12-07T14:51:13;96530;;;5.8;86
68965;BME280;56017;48.680;8.998;2022-12-07T14:53:46;96530;;;5.9;85.5
68965;BME280;56017;48.680;8.998;2022-12-07T14:56:21;96530;;;5.9;85.5
68965;BME280;56017;48.680;8.998;2022-12-07T14:58:45;96530;;;5.9;85.5
68965;BME280;56017;48.680;8.998;2022-12-07T15:01:23;96530;;;5.9;85
68965;BME280;56017;48.680;8.998;2022-12-07T15:08:52;96540;;;5.8;85
68965;BME280;56017;48.680;8.998;2022-12-07T15:11:21;96530;;;5.8;85
68965;BME280;56017;48.680;8.998;2022-12-07T15:13:51;96530;;;5.7;85
68965;BME280;56017;48.680;8.998;2022-12-07T15:16:31;96540;;;5.8;85.5
68965;BME280;56017;48.680;8.998;2022-12-07T15:18:53;96530;;;5.8;85.5
68965;BME280;56017;48.680;8.998;2022-12-07T15:21:25;96530;;;5.9;85
68965;BME280;56017;48.680;8.998;2022-12-07T15:23:55;96530;;;5.8;85.5
68965;BME280;56017;48.680;8.998;2022-12-07T15:26:33;96530;;;5.8;85
68965;BME280;56017;48.680;8.998;2022-12-07T15:28:57;96530;;;5.8;85.5
68965;BME280;56017;48.680;8.998;2022-12-07T15:31:35;96530;;;5.7;85
68965;BME280;56017;48.680;8.998;2022-12-07T15:33:59;96530;;;5.7;85.5
68965;BME280;56017;48.680;8.998;2022-12-07T15:36:37;96530;;;5.6;85.5
68965;BME280;56017;48.680;8.998;2022-12-07T15:39:01;96530;;;5.6;85.5
68965;BME280;56017;48.680;8.998;2022-12-07T15:41:39;96540;;;5.5;85.5
68965;BME280;56017;48.680;8.998;2022-12-07T15:44:05;96540;;;5.4;86
68965;BME280;56017;48.680;8.998;2022-12-07T15:46:41;96540;;;5.4;86
68965;BME280;56017;48.680;8.998;2022-12-07T15:49:08;96540;;;5.4;86
68965;BME280;56017;48.680;8.998;2022-12-07T15:51:43;96540;;;5.3;85.5
68965;BME280;56017;48.680;8.998;2022-12-07T15:54:08;96530;;;5.1;85.5
68965;BME280;56017;48.680;8.998;2022-12-07T15:56:38;96530;;;5;86
68965;BME280;56017;48.680;8.998;2022-12-07T15:59:12;96530;;;5;86.5
68965;BME280;56017;48.680;8.998;2022-12-07T16:04:12;96530;;;5;86.5
68965;BME280;56017;48.680;8.998;2022-12-07T16:09:13;96530;;;4.9;86.5
68965;BME280;56017;48.680;8.998;2022-12-07T16:11:50;96530;;;4.9;86.5
68965;BME280;56017;48.680;8.998;2022-12-07T16:14:15;96520;;;5;86.5
68965;BME280;56017;48.680;8.998;2022-12-07T16:19:17;96520;;;5;86
68965;BME280;56017;48.680;8.998;2022-12-07T16:21:54;96520;;;5.1;86.5
68965;BME280;56017;48.680;8.998;2022-12-07T16:24:19;96520;;;5.2;86